Flight Track Log - Related Links

Times and Time Zones

All times are in EDT time to prevent confusion due to time zone crossing. See the N610DA flight status page for this flight to view local times or setup timezone preferences in your user account.

Time Position Orientation Groundspeed Altitude Reporting Facility
EDT Latitude Longitude Course Direction KTS MPH feet Rate Location/Type
Sun 12:41:30 PM 28.7833 -81.2333 90° East 63 72 400  Level Orlando TRACON
Sun 12:42:00 PM 28.7833 -81.2167 90° East 94 108 800 667 Climbing Orlando TRACON
Sun 12:43:00 PM 28.8000 -81.2000 41° Northeast 102 117 1,400 550 Climbing Orlando TRACON
Sun 12:44:00 PM 28.8333 -81.1667 41° Northeast 111 128 1,900 542 Climbing Orlando TRACON
Sun 12:45:35 PM 28.8525 -81.2094 297° West 108 124 2,800 600 Climbing Jacksonville Center
Sun 12:46:30 PM 28.8508 -81.2428 267° West 112 129 3,400 574 Climbing Jacksonville Center
Sun 12:47:30 PM 28.8472 -81.2783 263° West 113 130 3,900 522 Climbing Jacksonville Center
Sun 12:48:25 PM 28.8436 -81.3117 263° West 111 128 4,400 574 Climbing Jacksonville Center
Sun 12:49:25 PM 28.8439 -81.3425 271° West 107 123 5,000 522 Climbing Jacksonville Center
Sun 12:50:20 PM 28.8669 -81.3586 329° Northwest 110 127 5,400 414 Climbing Jacksonville Center
Sun 12:51:21 PM 28.8964 -81.3725 338° Northwest 109 125 5,800 347 Climbing Jacksonville Center
Sun 12:52:21 PM 28.9256 -81.3792 349° North 102 117 6,100 313 Climbing Jacksonville Center
Sun 12:53:16 PM 28.9528 -81.3833 352° North 101 116 6,400 365 Climbing Jacksonville Center
Sun 12:54:16 PM 28.9842 -81.3853 357° North 115 132 6,800 298 Climbing Jacksonville Center
Sun 12:55:17 PM 29.0156 -81.3894 353° North 115 132 7,000 98 Climbing Jacksonville Center
Sun 12:56:18 PM 29.0489 -81.3939 353° North 119 137 7,000  Level Jacksonville Center
Sun 12:57:24 PM 29.0886 -81.3956 358° North 122 140 7,000  Level Jacksonville Center
Sun 12:58:25 PM 29.1200 -81.3997 337° Northwest 121 139 7,000  Level Jacksonville Center
Sun 12:59:32 PM 29.1578 -81.4064 351° North 129 148 7,000  Level Jacksonville Center
Sun 01:00:32 PM 29.1953 -81.4178 345° North 134 154 7,000  Level Jacksonville Center
Sun 01:01:27 PM 29.2289 -81.4172 North 136 157 7,000  Level Jacksonville Center
Sun 01:02:40 PM 29.2747 -81.4119 North 133 153 7,000  Level Jacksonville Center
Sun 01:03:35 PM 29.3081 -81.4161 354° North 132 152 7,000  Level Jacksonville Center
Sun 01:04:41 PM 29.3500 -81.4225 352° North 133 153 7,000  Level Jacksonville Center
Sun 01:05:36 PM 29.3833 -81.4244 357° North 134 154 7,000  Level Jacksonville Center
Sun 01:06:43 PM 29.4250 -81.4214 North 129 148 7,000  Level Jacksonville Center
Sun 01:07:43 PM 29.4606 -81.4281 351° North 126 145 7,000  Level Jacksonville Center
Sun 01:08:44 PM 29.4961 -81.4322 354° North 131 151 7,000  Level Jacksonville Center
Sun 01:09:45 PM 29.5317 -81.4367 354° North 129 148 7,000  Level Jacksonville Center
Sun 01:10:45 PM 29.5672 -81.4408 354° North 129 148 7,000  Level Jacksonville Center
Sun 01:11:46 PM 29.6050 -81.4497 348° North 132 152 7,000  Level Jacksonville Center
Sun 01:12:18 PM 29.6236 -81.4519 354° North 132 152 7,000  Level Jacksonville Center
Sun 01:13:31 PM 29.6697 -81.4583 353° North 135 155 7,000  Level Jacksonville Center
Sun 01:14:26 PM 29.7031 -81.4581 360° North 134 154 7,000  Level Jacksonville Center
Sun 01:15:33 PM 29.7450 -81.4597 358° North 134 154 7,000  Level Jacksonville Center
Sun 01:16:28 PM 29.7783 -81.4592 North 130 150 7,000  Level Jacksonville Center
Sun 01:17:34 PM 29.8200 -81.4633 355° North 130 150 7,000  Level Jacksonville Center
Sun 01:18:35 PM 29.8578 -81.4675 355° North 134 154 7,000  Level Jacksonville Center
Sun 01:19:36 PM 29.8933 -81.4719 354° North 134 154 7,000  Level Jacksonville Center
Sun 01:20:37 PM 29.9308 -81.4761 354° North 126 145 7,000 -98 Level Jacksonville Center
Sun 01:21:38 PM 29.9664 -81.4781 357° North 129 148 6,800 -295 Descending Jacksonville Center
Sun 01:22:39 PM 30.0039 -81.4797 358° North 138 159 6,400 -469 Descending Jacksonville Center
Sun 01:23:46 PM 30.0478 -81.4839 355° North 136 157 5,800 -541 Descending Jacksonville Center
Sun 01:24:41 PM 30.0814 -81.4836 360° North 133 153 5,300 -414 Descending Jacksonville Center
Sun 01:25:42 PM 30.1147 -81.4925 347° North 129 148 5,000 -141 Descending Jacksonville Center
Sun 01:26:49 PM 30.1544 -81.4969 354° North 127 146 5,000  Level Jacksonville Center
Sun 01:27:50 PM 30.1881 -81.5011 354° North 128 147 5,000  Level Jacksonville Center
Sun 01:28:51 PM 30.2175 -81.5225 328° Northwest 121 139 5,000  Level Jacksonville Center
Sun 01:29:40 PM 30.2364 -81.5439 316° Northwest 119 137 5,000  Level Jacksonville Center
Sun 01:30:35 PM 30.2575 -81.5675 316° Northwest 121 139 5,000  Level Jacksonville Center
Sun 01:31:54 PM 30.2892 -81.6056 314° West 123 142 5,000  Level Jacksonville Center
Sun 01:33:01 PM 30.3167 -81.6414 312° West 123 142 5,000  Level Jacksonville Center
Sun 01:34:02 PM 30.3419 -81.6675 318° Northwest 129 148 5,000  Level Jacksonville Center
Sun 01:35:03 PM 30.3675 -81.6961 316° Northwest 129 148 5,000  Level Jacksonville Center
Sun 01:35:52 PM 30.3864 -81.7197 313° West 124 143 5,000 -109 Level Jacksonville Center
Sun 01:36:53 PM 30.4097 -81.7483 313° West 118 136 4,800 -328 Descending Jacksonville Center
Sun 01:38:00 PM 30.4369 -81.7794 315° West 119 137 4,300 -375 Descending Jacksonville Center
Sun 01:39:01 PM 30.4603 -81.8058 316° Northwest 122 140 4,000 -569 Descending Jacksonville Center
Sun 01:39:56 PM 30.4833 -81.8344 313° West 127 146 3,200 -836 Descending Jacksonville Center
Sun 01:41:03 PM 30.5150 -81.8483 339° North 143 165 2,300 -609 Descending Jacksonville Center
Sun 01:42:04 PM 30.5272 -81.8097 70° East 115 132 1,900 -519 Descending Jacksonville Center
Sun 01:42:47 PM 30.5289 -81.7833 86° East 134 154 1,400 -577 Descending Jacksonville Center
Sun 01:43:48 PM 30.5161 -81.7447 111° Southeast 122 140 900 -492 Descending Jacksonville Center
Sun 01:44:49 PM 30.5011 -81.7183 123° Southeast 100 115 400 -492 Descending Jacksonville Center

Login

Don't have an account? Register now (free) for customized features, flight alerts, and more!